createdAt,value
2022-11-23T00:01:24.269Z,94973.09
2022-11-23T00:03:52.878Z,94960.06
2022-11-23T00:06:21.379Z,94951.91
2022-11-23T00:08:48.946Z,94918.31
2022-11-23T00:11:15.807Z,94958.66
2022-11-23T00:13:42.955Z,94952.84
2022-11-23T00:16:13.375Z,94977.25
2022-11-23T00:18:40.087Z,94944.25
2022-11-23T00:21:08.225Z,94980.47
2022-11-23T00:23:35.198Z,94923.22
2022-11-23T00:26:02.275Z,94949.16
2022-11-23T00:28:28.988Z,94937.19
2022-11-23T00:30:55.963Z,94975.53
2022-11-23T00:33:23.050Z,94970.50
2022-11-23T00:36:02.835Z,94977.38
2022-11-23T00:38:31.031Z,94952.22
2022-11-23T00:41:02.512Z,94945.94
2022-11-23T00:43:29.929Z,94974.78
2022-11-23T00:46:17.011Z,94974.00
2022-11-23T00:48:44.944Z,94971.56
2022-11-23T00:51:15.581Z,94960.06
2022-11-23T00:53:43.433Z,94959.88
2022-11-23T00:56:12.149Z,94960.81
2022-11-23T00:58:39.421Z,94943.81
2022-11-23T01:01:10.947Z,94974.47
2022-11-23T01:03:42.310Z,94931.84
2022-11-23T01:06:11.592Z,94918.78
2022-11-23T01:08:39.161Z,94953.16
2022-11-23T01:11:08.434Z,94977.09
2022-11-23T01:13:39.534Z,94968.19
2022-11-23T01:16:24.392Z,94976.31
2022-11-23T01:18:54.927Z,94980.00
2022-11-23T01:21:23.554Z,94941.63
2022-11-23T01:23:50.450Z,94973.69
2022-11-23T01:26:17.075Z,94981.97
2022-11-23T01:28:44.081Z,94960.97
2022-11-23T01:31:15.549Z,94988.75
2022-11-23T01:33:44.734Z,94984.88
2022-11-23T01:36:11.584Z,94983.81
2022-11-23T01:38:38.217Z,94923.06
2022-11-23T01:41:06.407Z,94981.22
2022-11-23T01:43:33.647Z,94992.41
2022-11-23T01:46:01.473Z,94995.19
2022-11-23T01:48:46.895Z,94999.03
2022-11-23T01:51:18.127Z,94996.56
2022-11-23T01:53:47.737Z,95006.53
2022-11-23T01:56:19.918Z,94987.97
2022-11-23T01:58:50.558Z,95003.16
2022-11-23T02:01:17.136Z,94999.59
2022-11-23T02:03:47.142Z,94996.25
2022-11-23T02:06:16.987Z,95000.38
2022-11-23T02:08:44.244Z,95000.84
2022-11-23T02:11:13.601Z,95002.06
2022-11-23T02:13:42.898Z,95012.19
2022-11-23T02:16:10.198Z,94986.41
2022-11-23T02:18:39.689Z,94991.94
2022-11-23T02:21:06.471Z,94980.13
2022-11-23T02:24:03.568Z,95017.88
2022-11-23T02:26:36.040Z,94980.13
2022-11-23T02:29:10.276Z,95012.19
2022-11-23T02:31:37.097Z,95009.25
2022-11-23T02:34:04.045Z,94995.63
2022-11-23T02:36:30.596Z,95015.44
2022-11-23T02:39:01.545Z,95009.88
2022-11-23T02:41:34.056Z,95003.13
2022-11-23T02:44:03.887Z,94987.97
2022-11-23T02:46:30.476Z,95017.72
2022-11-23T02:48:57.046Z,94982.88
2022-11-23T02:51:23.786Z,95010.19
2022-11-23T02:53:50.401Z,95014.00
2022-11-23T02:56:17.029Z,95020.91
2022-11-23T02:58:43.646Z,94996.50
2022-11-23T03:01:10.324Z,95006.53
2022-11-23T03:03:37.600Z,94988.53
2022-11-23T03:06:04.323Z,95027.66
2022-11-23T03:08:32.379Z,95012.16
2022-11-23T03:11:02.098Z,95011.38
2022-11-23T03:13:29.955Z,95035.97
2022-11-23T03:15:58.146Z,94993.91
2022-11-23T03:18:26.720Z,95035.34
2022-11-23T03:20:53.978Z,95016.47
2022-11-23T03:23:20.871Z,95035.38
2022-11-23T03:25:55.908Z,95052.56
2022-11-23T03:28:24.175Z,95030.75
2022-11-23T03:30:51.069Z,95026.59
2022-11-23T03:33:18.385Z,95049.34
2022-11-23T03:35:47.388Z,95053.16
2022-11-23T03:38:20.564Z,95040.53
2022-11-23T03:40:47.512Z,95028.72
2022-11-23T03:43:40.441Z,95025.03
2022-11-23T03:46:07.643Z,95039.50
2022-11-23T03:48:34.267Z,95027.69
2022-11-23T03:51:00.878Z,95028.75
2022-11-23T03:53:27.520Z,95004.81
2022-11-23T03:55:56.318Z,94995.28
2022-11-23T03:58:24.244Z,95008.97
2022-11-23T04:00:51.163Z,95018.94
2022-11-23T04:03:17.892Z,95031.19
2022-11-23T04:06:03.632Z,95008.50
2022-11-23T04:09:01.524Z,95025.53
2022-11-23T04:11:44.998Z,95022.78
2022-11-23T04:14:11.688Z,95028.31
2022-11-23T04:16:38.299Z,95011.09
2022-11-23T04:19:04.887Z,95003.56
2022-11-23T04:21:31.527Z,95013.25
2022-11-23T04:23:58.400Z,95031.97
2022-11-23T04:26:25.808Z,94997.28
2022-11-23T04:28:52.417Z,94995.94
2022-11-23T04:31:19.073Z,95024.78
2022-11-23T04:34:05.677Z,94997.13
2022-11-23T04:36:33.089Z,94995.75
2022-11-23T04:39:00.320Z,94989.31
2022-11-23T04:41:35.447Z,94986.97
2022-11-23T04:44:03.509Z,94993.16
2022-11-23T04:46:30.124Z,95008.66
2022-11-23T04:48:59.154Z,94986.41
2022-11-23T04:51:26.593Z,95022.50
2022-11-23T04:53:54.275Z,94992.09
2022-11-23T04:56:21.134Z,95015.13
2022-11-23T04:58:48.176Z,94997.63
2022-11-23T05:01:15.018Z,95001.59
2022-11-23T05:04:01.637Z,94979.97
2022-11-23T05:06:28.295Z,94960.00
2022-11-23T05:08:55.081Z,95004.66
2022-11-23T05:11:48.348Z,95027.66
2022-11-23T05:14:15.224Z,95032.28
2022-11-23T05:16:41.862Z,95033.81
2022-11-23T05:19:09.019Z,95023.53
2022-11-23T05:21:35.665Z,95005.91
2022-11-23T05:24:02.517Z,94994.69
2022-11-23T05:26:29.761Z,95016.47
2022-11-23T05:28:56.356Z,95009.25
2022-11-23T05:31:23.015Z,94983.81
2022-11-23T05:33:51.380Z,94977.22
2022-11-23T05:36:25.864Z,95001.91
2022-11-23T05:38:52.459Z,95020.78
2022-11-23T05:41:25.957Z,94995.13
2022-11-23T05:43:56.532Z,95025.38
2022-11-23T05:46:26.953Z,95004.06
2022-11-23T05:48:54.233Z,95025.06
2022-11-23T05:51:21.056Z,95036.91
2022-11-23T05:53:49.165Z,95044.59
2022-11-23T05:56:22.771Z,95006.47
2022-11-23T05:59:01.076Z,95025.53
2022-11-23T06:01:27.765Z,95041.34
2022-11-23T06:03:58.769Z,95039.03
2022-11-23T06:06:25.672Z,95039.47
2022-11-23T06:08:52.344Z,95029.50
2022-11-23T06:11:19.390Z,95010.81
2022-11-23T06:13:48.048Z,95035.81
2022-11-23T06:16:16.322Z,95004.47
2022-11-23T06:18:55.035Z,95036.09
2022-11-23T06:21:21.598Z,95044.41
2022-11-23T06:23:49.472Z,95050.06
2022-11-23T06:26:16.699Z,95022.41
2022-11-23T06:28:43.335Z,94991.72
2022-11-23T06:31:10.435Z,95045.28
2022-11-23T06:33:38.484Z,95028.75
2022-11-23T06:36:05.597Z,95012.00
2022-11-23T06:38:37.921Z,95042.84
2022-11-23T06:41:11.105Z,95047.59
2022-11-23T06:43:37.739Z,95009.19
2022-11-23T06:46:08.918Z,95036.84
2022-11-23T06:48:42.908Z,94998.03
2022-11-23T06:51:11.371Z,94988.50
2022-11-23T06:53:38.081Z,94979.44
2022-11-23T06:56:08.038Z,95029.47
2022-11-23T06:58:35.327Z,95050.19
2022-11-23T07:01:06.536Z,95040.84
2022-11-23T07:03:39.514Z,95043.31
2022-11-23T07:06:17.337Z,95017.38
2022-11-23T07:08:44.096Z,95037.78
2022-11-23T07:11:22.754Z,95038.25
2022-11-23T07:13:49.347Z,95037.44
2022-11-23T07:16:16.146Z,95068.03
2022-11-23T07:18:42.853Z,95038.81
2022-11-23T07:21:09.488Z,95047.09
2022-11-23T07:23:40.619Z,95071.84
2022-11-23T07:26:09.190Z,95037.31
2022-11-23T07:28:36.028Z,95070.81
2022-11-23T07:31:02.934Z,95047.25
2022-11-23T07:33:30.361Z,95033.91
2022-11-23T07:35:57.013Z,95046.19
2022-11-23T07:38:23.687Z,95092.91
2022-11-23T07:40:51.747Z,95091.66
2022-11-23T07:43:40.275Z,95091.50
2022-11-23T07:46:07.452Z,95078.09
2022-11-23T07:48:36.534Z,95068.16
2022-11-23T07:51:03.602Z,95110.53
2022-11-23T07:53:30.204Z,95090.53
2022-11-23T07:56:00.638Z,95115.25
2022-11-23T07:58:27.395Z,95076.38
2022-11-23T08:00:53.984Z,95071.78
2022-11-23T08:03:27.633Z,95101.34
2022-11-23T08:05:55.101Z,95102.84
2022-11-23T08:08:22.115Z,95100.06
2022-11-23T08:10:53.519Z,95068.16
2022-11-23T08:13:21.764Z,95100.25
2022-11-23T08:15:53.981Z,95079.22
2022-11-23T08:18:21.785Z,95086.88
2022-11-23T08:20:48.460Z,95077.03
2022-11-23T08:23:15.116Z,95056.19
2022-11-23T08:25:41.928Z,95097.50
2022-11-23T08:28:08.556Z,95057.72
2022-11-23T08:30:35.260Z,95079.69
2022-11-23T08:33:09.647Z,95110.81
2022-11-23T08:35:37.693Z,95104.09
2022-11-23T08:38:05.433Z,95102.56
2022-11-23T08:40:32.581Z,95101.34
2022-11-23T08:42:59.297Z,95082.75
2022-11-23T08:45:26.157Z,95079.97
2022-11-23T08:47:53.161Z,95094.13
2022-11-23T08:50:20.353Z,95055.91
2022-11-23T08:52:47.110Z,95064.06
2022-11-23T08:55:14.228Z,95089.38
2022-11-23T08:57:40.821Z,95086.44
2022-11-23T09:00:08.226Z,95081.84
2022-11-23T09:02:34.768Z,95082.34
2022-11-23T09:05:01.379Z,95085.25
2022-11-23T09:07:28.013Z,95115.53
2022-11-23T09:09:54.669Z,95111.34
2022-11-23T09:12:21.265Z,95106.59
2022-11-23T09:14:47.882Z,95142.84
2022-11-23T09:17:14.480Z,95133.31
2022-11-23T09:19:41.080Z,95136.81
2022-11-23T09:22:07.670Z,95131.47
2022-11-23T09:24:34.471Z,95111.94
2022-11-23T09:27:01.244Z,95137.78
2022-11-23T09:29:28.497Z,95146.50
2022-11-23T09:31:57.810Z,95113.50
2022-11-23T09:34:24.447Z,95147.31
2022-11-23T09:36:51.069Z,95153.13
2022-11-23T09:39:17.674Z,95129.31
2022-11-23T09:41:53.338Z,95157.00
2022-11-23T09:44:41.910Z,95150.38
2022-11-23T09:47:14.603Z,95149.91
2022-11-23T09:49:59.267Z,95150.50
2022-11-23T09:52:26.031Z,95113.03
2022-11-23T09:54:56.981Z,95122.41
2022-11-23T09:57:29.477Z,95095.06
2022-11-23T09:59:56.031Z,95133.47
2022-11-23T10:02:25.972Z,95090.16
2022-11-23T10:04:53.687Z,95130.84
2022-11-23T10:07:29.323Z,95121.66
2022-11-23T10:10:11.221Z,95121.81
2022-11-23T10:12:55.619Z,95123.97
2022-11-23T10:15:28.295Z,95096.03
2022-11-23T10:18:12.147Z,95124.59
2022-11-23T10:20:57.465Z,95127.47
2022-11-23T10:23:51.532Z,95127.19
2022-11-23T10:26:21.339Z,95116.59
2022-11-23T10:28:49.467Z,95117.69
2022-11-23T10:31:17.560Z,95117.81
2022-11-23T10:33:44.152Z,95118.91
2022-11-23T10:36:13.671Z,95096.78
2022-11-23T10:38:41.280Z,95100.16
2022-11-23T10:41:07.832Z,95116.44
2022-11-23T10:43:37.368Z,95102.16
2022-11-23T10:46:24.658Z,95109.84
2022-11-23T10:48:52.599Z,95092.97
2022-11-23T10:51:32.857Z,95116.59
2022-11-23T10:54:06.275Z,95109.38
2022-11-23T10:56:34.206Z,95083.88
2022-11-23T10:59:00.833Z,95105.38
2022-11-23T11:01:30.232Z,95103.38
2022-11-23T11:04:03.912Z,95084.03
2022-11-23T11:06:34.148Z,95077.75
2022-11-23T11:09:17.949Z,95106.13
2022-11-23T11:11:52.209Z,95104.09
2022-11-23T11:14:23.485Z,95101.47
2022-11-23T11:16:55.469Z,95104.56
2022-11-23T11:19:32.427Z,95118.25
2022-11-23T11:22:01.635Z,95095.81
2022-11-23T11:24:36.109Z,95112.53
2022-11-23T11:27:06.463Z,95111.94
2022-11-23T11:29:45.041Z,95113.59
2022-11-23T11:32:17.879Z,95098.38
2022-11-23T11:35:20.574Z,95108.06
2022-11-23T11:37:50.304Z,95070.31
2022-11-23T11:40:20.229Z,95103.72
2022-11-23T11:42:57.899Z,95089.88
2022-11-23T11:45:28.702Z,95093.16
2022-11-23T11:48:07.153Z,95094.06
2022-11-23T11:50:38.892Z,95089.56
2022-11-23T11:53:15.115Z,95070.81
2022-11-23T11:55:53.273Z,95059.66
2022-11-23T11:58:22.603Z,95089.38
2022-11-23T12:00:50.707Z,95068.66
2022-11-23T12:03:29.759Z,95077.69
2022-11-23T12:06:02.691Z,95069.53
2022-11-23T12:08:39.775Z,95076.50
2022-11-23T12:11:07.278Z,95054.97
2022-11-23T12:13:37.033Z,95081.34
2022-11-23T12:16:12.826Z,95094.31
2022-11-23T12:18:50.170Z,95094.56
2022-11-23T12:21:55.683Z,95095.38
2022-11-23T12:24:47.466Z,95076.41
2022-11-23T12:27:48.024Z,95096.22
2022-11-23T12:30:36.978Z,95096.78
2022-11-23T12:33:03.541Z,95102.53
2022-11-23T12:35:48.959Z,95100.06
2022-11-23T12:38:40.558Z,95098.66
2022-11-23T12:41:11.235Z,95087.72
2022-11-23T12:43:49.938Z,95091.75
2022-11-23T12:46:34.886Z,95061.16
2022-11-23T12:49:11.189Z,95096.59
2022-11-23T12:52:05.145Z,95093.53
2022-11-23T12:55:19.227Z,95100.31
2022-11-23T12:57:59.077Z,95072.88
2022-11-23T13:00:32.083Z,95097.25
2022-11-23T13:02:58.647Z,95091.44
2022-11-23T13:06:02.875Z,95087.66
2022-11-23T13:08:48.371Z,95087.41
2022-11-23T13:11:36.284Z,95095.50
2022-11-23T13:14:08.752Z,95094.75
2022-11-23T13:16:54.895Z,95094.50
2022-11-23T13:19:40.609Z,95092.66
2022-11-23T13:22:12.900Z,95096.72
2022-11-23T13:24:58.828Z,95101.50
2022-11-23T13:27:31.327Z,95104.25
2022-11-23T13:30:01.089Z,95075.97
2022-11-23T13:32:39.994Z,95094.19
2022-11-23T13:35:18.841Z,95104.91
2022-11-23T13:37:54.454Z,95095.38
2022-11-23T13:40:24.438Z,95103.38
2022-11-23T13:42:58.156Z,95095.06
2022-11-23T13:45:26.972Z,95089.25
2022-11-23T13:48:03.966Z,95103.63
2022-11-23T13:50:31.373Z,95046.47
2022-11-23T13:52:58.282Z,95061.47
2022-11-23T13:55:36.816Z,95074.97
2022-11-23T13:58:24.654Z,95103.13
2022-11-23T14:00:58.653Z,95102.06
2022-11-23T14:03:48.474Z,95091.97
2022-11-23T14:06:45.648Z,95085.81
2022-11-23T14:09:44.634Z,95095.59
2022-11-23T14:12:11.404Z,95102.41
2022-11-23T14:15:02.071Z,95099.03
2022-11-23T14:17:58.067Z,95103.94
2022-11-23T14:20:50.224Z,95103.81
2022-11-23T14:23:32.095Z,95105.25
2022-11-23T14:26:24.275Z,95114.50
2022-11-23T14:29:03.956Z,95106.56
2022-11-23T14:32:01.198Z,95105.28
2022-11-23T14:34:43.152Z,95078.50
2022-11-23T14:37:31.128Z,95101.38
2022-11-23T14:40:16.495Z,95098.28
2022-11-23T14:42:46.045Z,95091.41
2022-11-23T14:45:15.067Z,95062.66
2022-11-23T14:47:41.693Z,95069.16
2022-11-23T14:50:29.277Z,95087.31
2022-11-23T14:52:58.938Z,95087.63
2022-11-23T14:55:28.408Z,95083.19
2022-11-23T14:58:02.480Z,95050.88
2022-11-23T15:00:38.704Z,95051.22
2022-11-23T15:03:48.916Z,95042.41
2022-11-23T15:06:15.606Z,95040.88
2022-11-23T15:08:48.926Z,95074.22
2022-11-23T15:11:21.567Z,95086.63
2022-11-23T15:13:50.441Z,95093.25
2022-11-23T15:16:19.275Z,95103.03
2022-11-23T15:18:48.796Z,95101.34
2022-11-23T15:21:26.944Z,95100.28
2022-11-23T15:23:57.605Z,95056.69
2022-11-23T15:26:47.581Z,95103.00
2022-11-23T15:29:38.575Z,95087.19
2022-11-23T15:32:33.292Z,95085.53
2022-11-23T15:35:07.083Z,95097.06
2022-11-23T15:37:41.003Z,95070.59
2022-11-23T15:40:16.335Z,95075.19
2022-11-23T15:42:45.045Z,95067.66
2022-11-23T15:45:37.959Z,95108.38
2022-11-23T15:48:11.537Z,95095.81
2022-11-23T15:50:58.603Z,95120.06
2022-11-23T15:53:46.963Z,95101.56
2022-11-23T15:56:28.799Z,95114.00
2022-11-23T15:58:56.512Z,95116.97
2022-11-23T16:01:23.522Z,95095.78
2022-11-23T16:03:52.458Z,95120.19
2022-11-23T16:06:24.826Z,95122.34
2022-11-23T16:08:52.114Z,95122.47
2022-11-23T16:11:21.924Z,95120.47
2022-11-23T16:13:48.918Z,95106.03
2022-11-23T16:16:21.843Z,95103.41
2022-11-23T16:18:57.835Z,95114.94
2022-11-23T16:21:25.517Z,95116.78
2022-11-23T16:23:55.440Z,95125.19
2022-11-23T16:26:31.398Z,95122.59
2022-11-23T16:28:59.507Z,95055.53
2022-11-23T16:31:43.194Z,95121.25
2022-11-23T16:34:13.533Z,95121.38
2022-11-23T16:36:40.275Z,95083.56
2022-11-23T16:39:06.986Z,95101.56
2022-11-23T16:41:33.606Z,95106.78
2022-11-23T16:44:00.300Z,95082.38
2022-11-23T16:46:26.995Z,95109.91
2022-11-23T16:48:57.475Z,95112.47
2022-11-23T16:51:24.164Z,95083.97
2022-11-23T16:54:12.951Z,95053.75
2022-11-23T16:56:38.754Z,95104.69
2022-11-23T16:59:05.553Z,95083.06
2022-11-23T17:01:33.176Z,95106.72
2022-11-23T17:04:00.356Z,95085.66
2022-11-23T17:06:27.289Z,95098.38
2022-11-23T17:08:59.548Z,95097.63
2022-11-23T17:11:27.993Z,95116.41
2022-11-23T17:13:55.955Z,95116.84
2022-11-23T17:16:25.342Z,95104.75
2022-11-23T17:18:52.291Z,95082.63
2022-11-23T17:21:18.982Z,95109.66
2022-11-23T17:23:45.785Z,95103.06
2022-11-23T17:26:30.028Z,95084.03
2022-11-23T17:28:57.516Z,95077.28
2022-11-23T17:31:24.216Z,95043.81
2022-11-23T17:33:50.929Z,95090.31
2022-11-23T17:36:18.025Z,95086.50
2022-11-23T17:38:47.182Z,95096.16
2022-11-23T17:41:14.623Z,95068.06
2022-11-23T17:43:41.456Z,95091.72
2022-11-23T17:46:17.691Z,95099.84
2022-11-23T17:48:45.560Z,95081.72
2022-11-23T17:51:13.236Z,95080.50
2022-11-23T17:53:40.457Z,95108.91
2022-11-23T17:56:16.899Z,95079.00
2022-11-23T17:58:43.943Z,95100.47
2022-11-23T18:01:18.377Z,95115.38
2022-11-23T18:03:45.982Z,95087.88
2022-11-23T18:06:17.988Z,95082.66
2022-11-23T18:08:47.404Z,95112.59
2022-11-23T18:11:15.472Z,95123.81
2022-11-23T18:13:42.935Z,95125.03
2022-11-23T18:16:10.388Z,95120.28
2022-11-23T18:18:37.707Z,95097.72
2022-11-23T18:21:25.290Z,95120.91
2022-11-23T18:23:51.981Z,95147.63
2022-11-23T18:26:22.620Z,95117.69
2022-11-23T18:28:49.928Z,95139.31
2022-11-23T18:31:17.249Z,95128.75
2022-11-23T18:33:44.894Z,95128.28
2022-11-23T18:36:12.997Z,95152.53
2022-11-23T18:38:40.589Z,95150.84
2022-11-23T18:41:07.795Z,95165.44
2022-11-23T18:43:34.455Z,95145.50
2022-11-23T18:46:05.965Z,95170.97
2022-11-23T18:48:32.714Z,95164.81
2022-11-23T18:50:59.483Z,95162.81
2022-11-23T18:53:26.051Z,95148.84
2022-11-23T18:55:57.559Z,95177.56
2022-11-23T18:58:32.314Z,95148.72
2022-11-23T19:00:59.063Z,95156.06
2022-11-23T19:03:27.231Z,95180.63
2022-11-23T19:06:01.862Z,95185.41
2022-11-23T19:08:28.476Z,95160.06
2022-11-23T19:10:55.171Z,95156.06
2022-11-23T19:13:21.920Z,95184.00
2022-11-23T19:15:48.860Z,95152.22
2022-11-23T19:18:15.652Z,95154.38
2022-11-23T19:20:42.356Z,95183.09
2022-11-23T19:23:09.052Z,95174.50
2022-11-23T19:25:35.696Z,95179.38
2022-11-23T19:28:02.460Z,95162.34
2022-11-23T19:30:29.207Z,95194.63
2022-11-23T19:32:55.877Z,95192.31
2022-11-23T19:35:22.622Z,95152.34
2022-11-23T19:37:49.801Z,95178.34
2022-11-23T19:40:16.669Z,95156.66
2022-11-23T19:42:43.565Z,95192.63
2022-11-23T19:45:10.324Z,95173.28
2022-11-23T19:47:37.016Z,95198.34
2022-11-23T19:50:04.052Z,95162.81
2022-11-23T19:52:55.507Z,95168.38
2022-11-23T19:55:17.481Z,95172.66
2022-11-23T19:57:44.087Z,95202.31
2022-11-23T20:00:11.544Z,95186.47
2022-11-23T20:02:38.933Z,95190.94
2022-11-23T20:05:06.762Z,95200.63
2022-11-23T20:07:33.627Z,95190.63
2022-11-23T20:10:00.405Z,95236.44
2022-11-23T20:12:27.312Z,95233.50
2022-11-23T20:14:58.133Z,95233.63
2022-11-23T20:17:36.677Z,95206.75
2022-11-23T20:20:05.099Z,95243.31
2022-11-23T20:22:34.945Z,95206.75
2022-11-23T20:25:01.646Z,95252.53
2022-11-23T20:27:28.279Z,95211.16
2022-11-23T20:29:54.982Z,95214.13
2022-11-23T20:32:21.721Z,95228.25
2022-11-23T20:34:48.430Z,95236.69
2022-11-23T20:37:15.035Z,95263.63
2022-11-23T20:39:41.699Z,95278.97
2022-11-23T20:42:08.317Z,95249.59
2022-11-23T20:44:35.446Z,95279.72
2022-11-23T20:47:03.510Z,95279.53
2022-11-23T20:49:31.413Z,95248.94
2022-11-23T20:51:58.873Z,95232.47
2022-11-23T20:54:25.523Z,95257.09
2022-11-23T20:56:52.225Z,95264.63
2022-11-23T20:59:19.837Z,95283.22
2022-11-23T21:01:46.954Z,95277.06
2022-11-23T21:04:13.824Z,95255.50
2022-11-23T21:06:40.697Z,95282.25
2022-11-23T21:09:11.314Z,95264.44
2022-11-23T21:11:56.757Z,95304.09
2022-11-23T21:14:27.142Z,95302.28
2022-11-23T21:16:56.808Z,95307.47
2022-11-23T21:19:28.446Z,95302.72
2022-11-23T21:21:57.153Z,95267.94
2022-11-23T21:24:24.230Z,95293.31
2022-11-23T21:26:51.260Z,95276.69
2022-11-23T21:29:18.743Z,95291.13
2022-11-23T21:31:47.361Z,95311.75
2022-11-23T21:34:22.823Z,95313.47
2022-11-23T21:36:49.876Z,95313.78
2022-11-23T21:39:17.132Z,95318.84
2022-11-23T21:41:44.711Z,95309.59
2022-11-23T21:44:12.038Z,95315.47
2022-11-23T21:46:40.457Z,95321.97
2022-11-23T21:49:08.032Z,95330.94
2022-11-23T21:51:36.175Z,95324.16
2022-11-23T21:54:05.431Z,95295.72
2022-11-23T21:56:32.174Z,95313.84
2022-11-23T21:58:59.427Z,95334.97
2022-11-23T22:01:33.235Z,95334.34
2022-11-23T22:04:02.763Z,95332.78
2022-11-23T22:06:29.675Z,95331.25
2022-11-23T22:08:58.196Z,95333.75
2022-11-23T22:11:30.406Z,95336.03
2022-11-23T22:13:59.727Z,95285.69
2022-11-23T22:16:37.975Z,95350.94
2022-11-23T22:19:05.829Z,95342.81
2022-11-23T22:21:34.937Z,95335.69
2022-11-23T22:24:02.407Z,95342.75
2022-11-23T22:26:29.041Z,95321.50
2022-11-23T22:28:56.297Z,95333.09
2022-11-23T22:31:25.141Z,95350.50
2022-11-23T22:33:54.950Z,95326.59
2022-11-23T22:36:23.274Z,95338.31
2022-11-23T22:39:01.334Z,95310.41
2022-11-23T22:41:30.121Z,95315.97
2022-11-23T22:43:57.082Z,95321.47
2022-11-23T22:46:24.729Z,95318.44
2022-11-23T22:48:52.665Z,95347.66
2022-11-23T22:51:21.722Z,95336.34
2022-11-23T22:53:52.644Z,95311.53
2022-11-23T22:56:20.098Z,95341.66
2022-11-23T22:58:47.946Z,95348.59
2022-11-23T23:01:16.713Z,95348.53
2022-11-23T23:03:43.923Z,95315.19
2022-11-23T23:06:21.666Z,95321.66
2022-11-23T23:08:53.213Z,95315.78
2022-11-23T23:11:21.159Z,95337.81
2022-11-23T23:13:48.026Z,95339.34
2022-11-23T23:16:14.797Z,95364.72
2022-11-23T23:18:42.726Z,95348.25
2022-11-23T23:21:15.522Z,95343.94
2022-11-23T23:23:44.553Z,95342.53
2022-11-23T23:26:13.118Z,95307.31
2022-11-23T23:28:40.504Z,95356.72
2022-11-23T23:31:09.340Z,95368.09
2022-11-23T23:33:36.095Z,95343.28
2022-11-23T23:36:05.755Z,95365.94
2022-11-23T23:38:33.200Z,95347.84
2022-11-23T23:41:00.543Z,95361.13
2022-11-23T23:43:28.563Z,95360.50
2022-11-23T23:45:59.790Z,95359.16
2022-11-23T23:48:34.728Z,95356.38
2022-11-23T23:51:12.536Z,95356.97
2022-11-23T23:53:40.062Z,95354.63
2022-11-23T23:56:36.115Z,95362.50
2022-11-23T23:59:02.948Z,95344.31
